createdAt,value
2023-04-28T00:00:14.789Z,24.35
2023-04-28T00:02:41.764Z,26.48
2023-04-28T00:05:09.076Z,21.88
2023-04-28T00:07:35.808Z,22.45
2023-04-28T00:10:02.470Z,17.92
2023-04-28T00:12:29.305Z,21.95
2023-04-28T00:14:55.958Z,25.27
2023-04-28T00:17:22.720Z,20.10
2023-04-28T00:19:50.513Z,17.08
2023-04-28T00:22:17.214Z,24.30
2023-04-28T00:24:43.801Z,28.85
2023-04-28T00:27:10.759Z,24.95
2023-04-28T00:29:37.572Z,22.67
2023-04-28T00:32:04.391Z,23.55
2023-04-28T00:34:34.522Z,22.88
2023-04-28T00:37:01.268Z,26.73
2023-04-28T00:39:28.268Z,21.30
2023-04-28T00:41:54.999Z,17.70
2023-04-28T00:44:21.760Z,22.95
2023-04-28T00:46:48.826Z,22.98
2023-04-28T00:49:16.732Z,18.63
2023-04-28T00:51:43.416Z,21.55
2023-04-28T00:54:14.437Z,23.90
2023-04-28T00:56:41.517Z,21.77
2023-04-28T00:59:08.296Z,24.67
2023-04-28T01:01:36.805Z,19.50
2023-04-28T01:04:03.787Z,24.38
2023-04-28T01:06:31.938Z,21.08
2023-04-28T01:08:58.750Z,17.75
2023-04-28T01:11:25.552Z,24.00
2023-04-28T01:13:52.797Z,29.13
2023-04-28T01:16:19.649Z,22.25
2023-04-28T01:18:48.144Z,21.55
2023-04-28T01:21:14.799Z,23.50
2023-04-28T01:23:41.420Z,24.27
2023-04-28T01:26:08.086Z,19.75
2023-04-28T01:28:34.761Z,26.33
2023-04-28T01:31:01.454Z,26.52
2023-04-28T01:33:28.074Z,27.40
2023-04-28T01:35:58.578Z,28.77
2023-04-28T01:38:25.347Z,23.83
2023-04-28T01:40:51.992Z,25.45
2023-04-28T01:43:18.989Z,27.60
2023-04-28T01:45:45.941Z,21.33
2023-04-28T01:48:12.631Z,29.80
2023-04-28T01:50:39.236Z,25.48
2023-04-28T01:53:05.888Z,15.70
2023-04-28T01:55:32.541Z,30.63
2023-04-28T01:57:59.177Z,25.67
2023-04-28T02:00:27.229Z,26.33
2023-04-28T02:02:53.978Z,28.52
2023-04-28T02:05:20.698Z,25.65
2023-04-28T02:07:47.393Z,26.45
2023-04-28T02:10:14.103Z,29.58
2023-04-28T02:12:42.728Z,19.55
2023-04-28T02:15:09.852Z,22.27
2023-04-28T02:17:36.549Z,22.67
2023-04-28T02:20:03.394Z,15.65
2023-04-28T02:22:30.051Z,27.75
2023-04-28T02:24:57.528Z,31.42
2023-04-28T02:27:24.151Z,29.58
2023-04-28T02:29:50.733Z,24.48
2023-04-28T02:32:17.370Z,20.63
2023-04-28T02:34:44.083Z,30.80
2023-04-28T02:37:10.679Z,24.85
2023-04-28T02:39:37.770Z,31.38
2023-04-28T02:42:05.510Z,29.65
2023-04-28T02:44:32.177Z,17.75
2023-04-28T02:46:58.890Z,26.20
2023-04-28T02:49:25.540Z,25.02
2023-04-28T02:51:52.392Z,18.55
2023-04-28T02:54:27.508Z,20.45
2023-04-28T02:56:58.110Z,20.80
2023-04-28T02:59:25.579Z,28.13
2023-04-28T03:01:52.239Z,32.22
2023-04-28T03:04:20.565Z,24.33
2023-04-28T03:06:47.581Z,17.60
2023-04-28T03:09:14.761Z,19.83
2023-04-28T03:11:41.472Z,21.88
2023-04-28T03:14:08.101Z,16.83
2023-04-28T03:16:34.830Z,21.17
2023-04-28T03:19:01.818Z,23.17
2023-04-28T03:21:29.057Z,24.00
2023-04-28T03:23:55.703Z,27.50
2023-04-28T03:26:25.398Z,22.02
2023-04-28T03:28:52.049Z,22.20
2023-04-28T03:31:21.475Z,22.05
2023-04-28T03:33:48.152Z,17.40
2023-04-28T03:36:14.725Z,27.48
2023-04-28T03:38:41.903Z,25.20
2023-04-28T03:41:08.535Z,24.38
2023-04-28T03:43:37.449Z,27.90
2023-04-28T03:46:07.378Z,28.25
2023-04-28T03:48:34.366Z,31.67
2023-04-28T03:51:01.088Z,28.50
2023-04-28T03:53:27.846Z,22.77
2023-04-28T03:55:54.598Z,24.75
2023-04-28T03:58:21.438Z,23.05
2023-04-28T04:00:48.163Z,27.75
2023-04-28T04:03:14.978Z,21.27
2023-04-28T04:05:41.877Z,28.35
2023-04-28T04:08:09.100Z,28.20
2023-04-28T04:10:35.711Z,24.15
2023-04-28T04:13:02.292Z,16.58
2023-04-28T04:15:29.159Z,26.00
2023-04-28T04:17:55.877Z,20.83
2023-04-28T04:20:22.577Z,25.45
2023-04-28T04:22:49.221Z,17.90
2023-04-28T04:25:15.923Z,14.68
2023-04-28T04:27:42.681Z,21.05
2023-04-28T04:30:09.760Z,15.63
2023-04-28T04:32:36.374Z,16.65
2023-04-28T04:35:03.030Z,19.85
2023-04-28T04:37:29.767Z,16.95
2023-04-28T04:39:56.407Z,14.73
2023-04-28T04:42:25.830Z,18.60
2023-04-28T04:44:52.625Z,18.13
2023-04-28T04:47:19.296Z,17.73
2023-04-28T04:49:45.937Z,11.43
2023-04-28T04:52:12.573Z,14.40
2023-04-28T04:54:39.260Z,12.98
2023-04-28T04:57:06.870Z,10.70
2023-04-28T04:59:33.579Z,9.77
2023-04-28T05:02:00.372Z,12.52
2023-04-28T05:04:27.284Z,11.20
2023-04-28T05:06:53.949Z,13.10
2023-04-28T05:09:20.540Z,10.70
2023-04-28T05:11:47.275Z,11.73
2023-04-28T05:14:14.060Z,8.98
2023-04-28T05:16:42.101Z,7.85
2023-04-28T05:19:08.808Z,9.70
2023-04-28T05:21:35.910Z,7.57
2023-04-28T05:24:02.565Z,7.97
2023-04-28T05:26:29.152Z,8.75
2023-04-28T05:28:55.775Z,8.23
2023-04-28T05:31:22.400Z,8.25
2023-04-28T05:33:49.153Z,9.18
2023-04-28T05:36:17.185Z,6.30
2023-04-28T05:38:44.306Z,6.43
2023-04-28T05:41:11.308Z,3.90
2023-04-28T05:43:38.064Z,4.75
2023-04-28T05:46:09.693Z,5.20
2023-04-28T05:48:41.517Z,11.50
2023-04-28T05:51:08.127Z,5.57
2023-04-28T05:53:34.713Z,6.22
2023-04-28T05:56:01.407Z,3.80
2023-04-28T05:58:28.075Z,4.63
2023-04-28T06:00:55.189Z,6.45
2023-04-28T06:03:22.017Z,5.45
2023-04-28T06:05:49.272Z,5.88
2023-04-28T06:08:16.320Z,4.38
2023-04-28T06:10:42.946Z,5.25
2023-04-28T06:13:09.663Z,3.40
2023-04-28T06:15:36.358Z,3.80
2023-04-28T06:18:03.571Z,3.42
2023-04-28T06:20:30.230Z,7.15
2023-04-28T06:22:56.844Z,3.38
2023-04-28T06:25:23.457Z,3.85
2023-04-28T06:27:50.348Z,4.22
2023-04-28T06:30:21.446Z,1.90
2023-04-28T06:32:48.099Z,3.58
2023-04-28T06:35:16.461Z,4.25
2023-04-28T06:37:43.195Z,4.18
2023-04-28T06:40:10.707Z,3.55
2023-04-28T06:42:37.369Z,3.42
2023-04-28T06:45:04.163Z,3.95
2023-04-28T06:47:31.278Z,2.90
2023-04-28T06:49:57.980Z,2.40
2023-04-28T06:52:33.455Z,3.00
2023-04-28T06:55:07.782Z,2.22
2023-04-28T06:57:34.316Z,3.08
2023-04-28T07:00:01.022Z,3.22
2023-04-28T07:02:27.947Z,3.78
2023-04-28T07:04:55.462Z,4.60
2023-04-28T07:07:22.214Z,3.75
2023-04-28T07:09:48.859Z,2.83
2023-04-28T07:12:15.560Z,3.10
2023-04-28T07:14:42.194Z,3.50
2023-04-28T07:17:08.972Z,2.30
2023-04-28T07:19:35.768Z,3.10
2023-04-28T07:22:02.548Z,3.38
2023-04-28T07:24:29.387Z,3.15
2023-04-28T07:26:56.251Z,2.30
2023-04-28T07:29:23.317Z,1.92
2023-04-28T07:31:50.519Z,3.15
2023-04-28T07:34:17.463Z,2.55
2023-04-28T07:36:44.406Z,3.72
2023-04-28T07:39:11.178Z,1.58
2023-04-28T07:41:38.518Z,3.75
2023-04-28T07:44:07.653Z,3.53
2023-04-28T07:46:35.190Z,3.55
2023-04-28T07:49:02.984Z,2.63
2023-04-28T07:51:29.745Z,2.47
2023-04-28T07:53:59.215Z,1.63
2023-04-28T07:56:26.573Z,3.83
2023-04-28T07:58:53.531Z,1.95
2023-04-28T08:01:20.274Z,6.50
2023-04-28T08:03:47.032Z,1.55
2023-04-28T08:06:14.040Z,3.60
2023-04-28T08:08:40.760Z,1.92
2023-04-28T08:11:08.352Z,3.67
2023-04-28T08:13:35.290Z,2.65
2023-04-28T08:16:02.150Z,3.35
2023-04-28T08:18:29.280Z,2.63
2023-04-28T08:20:56.139Z,1.48
2023-04-28T08:23:22.836Z,2.03
2023-04-28T08:25:50.543Z,2.22
2023-04-28T08:28:17.138Z,1.60
2023-04-28T08:30:43.774Z,2.08
2023-04-28T08:33:10.484Z,1.42
2023-04-28T08:35:37.248Z,2.22
2023-04-28T08:38:04.228Z,2.90
2023-04-28T08:40:31.558Z,1.85
2023-04-28T08:42:58.565Z,1.60
2023-04-28T08:45:27.239Z,2.60
2023-04-28T08:47:56.282Z,1.60
2023-04-28T08:50:23.406Z,1.40
2023-04-28T08:52:52.463Z,1.30
2023-04-28T08:55:19.700Z,1.42
2023-04-28T08:57:51.991Z,1.67
2023-04-28T09:00:18.821Z,1.88
2023-04-28T09:02:45.594Z,3.78
2023-04-28T09:05:14.027Z,2.75
2023-04-28T09:07:41.622Z,1.33
2023-04-28T09:10:25.017Z,3.60
2023-04-28T09:12:53.507Z,4.55
2023-04-28T09:15:37.448Z,1.35
2023-04-28T09:18:06.588Z,1.90
2023-04-28T09:20:34.933Z,3.05
2023-04-28T09:23:18.794Z,2.35
2023-04-28T09:25:59.287Z,1.90
2023-04-28T09:28:26.088Z,4.65
2023-04-28T09:30:53.101Z,2.53
2023-04-28T09:33:21.019Z,4.00
2023-04-28T09:35:48.725Z,2.42
2023-04-28T09:38:16.401Z,2.75
2023-04-28T09:41:02.805Z,2.40
2023-04-28T09:43:30.659Z,2.72
2023-04-28T09:45:59.508Z,2.15
2023-04-28T09:48:32.149Z,2.05
2023-04-28T09:51:00.848Z,3.65
2023-04-28T09:53:28.382Z,2.85
2023-04-28T09:55:58.206Z,2.70
2023-04-28T09:58:27.564Z,4.30
2023-04-28T10:00:59.375Z,5.85
2023-04-28T10:03:29.636Z,3.55
2023-04-28T10:05:58.687Z,3.28
2023-04-28T10:08:27.455Z,4.60
2023-04-28T10:10:55.530Z,5.93
2023-04-28T10:13:30.097Z,3.78
2023-04-28T10:15:58.587Z,3.97
2023-04-28T10:18:25.872Z,3.85
2023-04-28T10:21:00.893Z,5.20
2023-04-28T10:23:51.016Z,6.55
2023-04-28T10:26:20.151Z,3.95
2023-04-28T10:28:48.669Z,3.15
2023-04-28T10:31:21.362Z,4.88
2023-04-28T10:33:49.820Z,3.58
2023-04-28T10:36:44.294Z,7.90
2023-04-28T10:39:14.355Z,4.38
2023-04-28T10:41:41.848Z,5.72
2023-04-28T10:44:30.190Z,4.40
2023-04-28T10:47:09.840Z,4.60
2023-04-28T10:49:56.216Z,4.13
2023-04-28T10:52:38.568Z,4.95
2023-04-28T10:55:27.171Z,3.45
2023-04-28T10:58:16.881Z,4.68
2023-04-28T11:00:45.525Z,4.13
2023-04-28T11:03:37.325Z,3.20
2023-04-28T11:06:34.445Z,4.03
2023-04-28T11:09:01.908Z,4.80
2023-04-28T11:11:39.266Z,4.78
2023-04-28T11:14:18.361Z,4.68
2023-04-28T11:17:08.754Z,5.07
2023-04-28T11:19:43.643Z,3.65
2023-04-28T11:22:18.840Z,3.33
2023-04-28T11:24:59.659Z,6.68
2023-04-28T11:27:28.212Z,3.10
2023-04-28T11:29:55.917Z,3.75
2023-04-28T11:32:33.910Z,4.45
2023-04-28T11:35:00.574Z,5.38
2023-04-28T11:37:27.438Z,3.65
2023-04-28T11:39:54.261Z,4.60
2023-04-28T11:42:21.305Z,4.40
2023-04-28T11:44:54.943Z,4.95
2023-04-28T11:47:32.909Z,4.78
2023-04-28T11:50:01.355Z,5.70
2023-04-28T11:52:28.181Z,8.20
2023-04-28T11:55:00.293Z,8.43
2023-04-28T11:57:27.700Z,4.95
2023-04-28T11:59:54.555Z,4.15
2023-04-28T12:02:29.878Z,5.15
2023-04-28T12:04:57.240Z,5.65
2023-04-28T12:07:24.650Z,6.57
2023-04-28T12:10:11.282Z,4.97
2023-04-28T12:15:08.547Z,5.60
2023-04-28T12:17:40.184Z,3.85
2023-04-28T12:20:11.973Z,9.80
2023-04-28T12:22:49.685Z,6.22
2023-04-28T12:25:19.471Z,5.70
2023-04-28T12:27:59.516Z,6.68
2023-04-28T12:30:27.535Z,6.40
2023-04-28T12:32:56.010Z,7.07
2023-04-28T12:35:23.923Z,6.50
2023-04-28T12:37:50.576Z,5.90
2023-04-28T12:40:17.265Z,5.80
2023-04-28T12:42:43.951Z,6.07
2023-04-28T12:45:10.996Z,3.75
2023-04-28T12:47:38.797Z,4.25
2023-04-28T12:50:06.858Z,4.70
2023-04-28T12:52:35.637Z,3.20
2023-04-28T12:55:03.273Z,4.60
2023-04-28T12:57:30.030Z,4.13
2023-04-28T12:59:57.306Z,2.63
2023-04-28T13:02:24.461Z,2.58
2023-04-28T13:04:52.219Z,3.60
2023-04-28T13:07:19.324Z,4.43
2023-04-28T13:09:47.623Z,3.13
2023-04-28T13:12:15.004Z,3.50
2023-04-28T13:14:42.062Z,3.55
2023-04-28T13:17:10.197Z,2.95
2023-04-28T13:19:37.488Z,3.97
2023-04-28T13:22:06.057Z,2.83
2023-04-28T13:24:36.246Z,2.50
2023-04-28T13:27:04.309Z,2.90
2023-04-28T13:29:31.027Z,3.42
2023-04-28T13:31:57.694Z,3.95
2023-04-28T13:34:24.400Z,4.13
2023-04-28T13:36:54.081Z,6.80
2023-04-28T13:39:22.178Z,4.25
2023-04-28T13:41:49.545Z,7.85
2023-04-28T13:44:16.869Z,7.75
2023-04-28T13:46:43.899Z,6.05
2023-04-28T13:49:11.096Z,6.15
2023-04-28T13:51:39.010Z,4.78
2023-04-28T13:54:08.838Z,7.57
2023-04-28T13:56:36.680Z,5.70
2023-04-28T13:59:03.583Z,7.28
2023-04-28T14:01:30.346Z,7.88
2023-04-28T14:03:57.356Z,6.65
2023-04-28T14:06:24.488Z,13.75
2023-04-28T14:08:51.160Z,7.32
2023-04-28T14:11:17.968Z,6.05
2023-04-28T14:13:44.642Z,4.43
2023-04-28T14:16:12.081Z,6.03
2023-04-28T14:18:38.887Z,6.05
2023-04-28T14:21:08.616Z,5.00
2023-04-28T14:23:35.704Z,5.63
2023-04-28T14:26:02.669Z,5.53
2023-04-28T14:28:29.655Z,4.53
2023-04-28T14:30:56.880Z,4.40
2023-04-28T14:33:24.439Z,5.05
2023-04-28T14:35:51.244Z,6.63
2023-04-28T14:38:18.017Z,6.57
2023-04-28T14:40:44.930Z,6.55
2023-04-28T14:43:11.572Z,7.63
2023-04-28T14:45:38.483Z,7.22
2023-04-28T14:48:07.137Z,6.18
2023-04-28T14:50:34.442Z,5.88
2023-04-28T14:53:05.608Z,6.03
2023-04-28T14:55:33.206Z,5.10
2023-04-28T14:57:59.898Z,7.40
2023-04-28T15:00:26.621Z,6.20
2023-04-28T15:02:53.935Z,5.35
2023-04-28T15:05:22.008Z,4.75
2023-04-28T15:07:48.651Z,4.25
2023-04-28T15:10:15.408Z,4.95
2023-04-28T15:12:42.955Z,4.93
2023-04-28T15:15:10.241Z,5.47
2023-04-28T15:17:36.960Z,5.57
2023-04-28T15:20:04.857Z,6.00
2023-04-28T15:22:31.656Z,5.05
2023-04-28T15:24:58.394Z,5.97
2023-04-28T15:27:25.232Z,6.60
2023-04-28T15:29:51.994Z,6.55
2023-04-28T15:32:19.214Z,5.35
2023-04-28T15:34:46.074Z,5.30
2023-04-28T15:37:38.654Z,9.65
2023-04-28T15:40:06.176Z,7.80
2023-04-28T15:42:33.101Z,6.15
2023-04-28T15:44:59.977Z,6.47
2023-04-28T15:47:26.745Z,6.22
2023-04-28T15:49:53.952Z,7.00
2023-04-28T15:52:22.511Z,9.35
2023-04-28T15:54:49.362Z,9.00
2023-04-28T15:57:16.241Z,7.10
2023-04-28T15:59:43.643Z,6.25
2023-04-28T16:02:10.377Z,8.40
2023-04-28T16:04:37.266Z,10.10
2023-04-28T16:07:04.466Z,8.75
2023-04-28T16:09:32.479Z,9.70
2023-04-28T16:11:59.786Z,5.57
2023-04-28T16:14:27.122Z,8.68
2023-04-28T16:16:54.028Z,5.25
2023-04-28T16:19:21.797Z,5.80
2023-04-28T16:21:48.560Z,5.63
2023-04-28T16:24:15.254Z,9.02
2023-04-28T16:26:42.067Z,6.40
2023-04-28T16:29:08.880Z,6.88
2023-04-28T16:31:36.345Z,6.45
2023-04-28T16:34:03.850Z,10.18
2023-04-28T16:36:32.982Z,7.60
2023-04-28T16:38:59.785Z,6.50
2023-04-28T16:41:26.466Z,6.80
2023-04-28T16:43:53.019Z,6.85
2023-04-28T16:46:19.723Z,6.35
2023-04-28T16:48:46.442Z,7.95
2023-04-28T16:51:13.053Z,2.83
2023-04-28T16:53:39.900Z,8.23
2023-04-28T16:56:08.424Z,9.32
2023-04-28T16:58:36.960Z,12.02
2023-04-28T17:01:03.730Z,7.35
2023-04-28T17:03:30.966Z,13.75
2023-04-28T17:05:59.339Z,4.82
2023-04-28T17:08:26.147Z,7.40
2023-04-28T17:10:52.763Z,9.27
2023-04-28T17:13:19.483Z,7.53
2023-04-28T17:15:46.224Z,9.30
2023-04-28T17:18:12.981Z,9.05
2023-04-28T17:20:40.084Z,10.70
2023-04-28T17:23:06.783Z,9.35
2023-04-28T17:25:33.420Z,14.18
2023-04-28T17:28:00.160Z,7.75
2023-04-28T17:30:26.807Z,8.80
2023-04-28T17:32:53.656Z,6.35
2023-04-28T17:35:22.991Z,10.93
2023-04-28T17:37:49.596Z,5.85
2023-04-28T17:40:16.194Z,9.70
2023-04-28T17:42:43.308Z,13.50
2023-04-28T17:45:10.904Z,11.10
2023-04-28T17:47:37.852Z,10.93
2023-04-28T17:50:06.600Z,12.98
2023-04-28T17:52:33.329Z,9.38
2023-04-28T17:54:59.936Z,16.30
2023-04-28T17:57:26.545Z,15.48
2023-04-28T17:59:53.324Z,7.97
2023-04-28T18:02:20.176Z,9.05
2023-04-28T18:04:47.011Z,9.90
2023-04-28T18:07:13.632Z,11.57
2023-04-28T18:09:40.252Z,11.07
2023-04-28T18:12:07.091Z,9.05
2023-04-28T18:14:33.797Z,14.10
2023-04-28T18:17:00.466Z,10.13
2023-04-28T18:19:28.188Z,12.13
2023-04-28T18:21:57.125Z,11.30
2023-04-28T18:24:24.580Z,11.55
2023-04-28T18:26:51.281Z,10.38
2023-04-28T18:29:18.892Z,12.75
2023-04-28T18:31:46.293Z,12.30
2023-04-28T18:34:13.320Z,11.57
2023-04-28T18:36:40.121Z,7.63
2023-04-28T18:39:08.717Z,10.77
2023-04-28T18:41:36.604Z,12.70
2023-04-28T18:44:03.456Z,10.25
2023-04-28T18:46:30.385Z,7.15
2023-04-28T18:48:57.035Z,9.55
2023-04-28T18:51:23.698Z,10.80
2023-04-28T18:53:50.334Z,8.80
2023-04-28T18:56:17.302Z,7.47
2023-04-28T18:58:44.066Z,11.25
2023-04-28T19:01:15.908Z,6.72
2023-04-28T19:03:43.075Z,8.60
2023-04-28T19:06:11.028Z,11.20
2023-04-28T19:08:41.443Z,9.52
2023-04-28T19:11:09.570Z,12.32
2023-04-28T19:13:37.583Z,8.05
2023-04-28T19:16:05.069Z,9.40
2023-04-28T19:18:33.156Z,9.23
2023-04-28T19:21:04.298Z,11.18
2023-04-28T19:23:32.417Z,6.07
2023-04-28T19:26:00.292Z,9.07
2023-04-28T19:28:27.174Z,8.50
2023-04-28T19:30:54.876Z,6.97
2023-04-28T19:33:27.810Z,11.13
2023-04-28T19:35:55.061Z,5.43
2023-04-28T19:38:23.223Z,11.55
2023-04-28T19:40:51.057Z,10.77
2023-04-28T19:43:18.110Z,7.30
2023-04-28T19:45:46.685Z,11.00
2023-04-28T19:48:14.476Z,9.57
2023-04-28T19:50:42.099Z,9.70
2023-04-28T19:53:09.447Z,10.65
2023-04-28T19:55:36.888Z,9.35
2023-04-28T19:58:04.138Z,7.97
2023-04-28T20:00:32.468Z,10.80
2023-04-28T20:03:00.046Z,9.02
2023-04-28T20:05:27.217Z,11.82
2023-04-28T20:07:56.243Z,11.52
2023-04-28T20:10:23.840Z,8.95
2023-04-28T20:12:50.469Z,14.02
2023-04-28T20:15:18.301Z,16.63
2023-04-28T20:17:45.997Z,15.80
2023-04-28T20:20:12.973Z,16.75
2023-04-28T20:22:41.036Z,12.20
2023-04-28T20:25:10.323Z,13.32
2023-04-28T20:27:37.186Z,15.18
2023-04-28T20:30:04.480Z,12.18
2023-04-28T20:32:31.310Z,8.45
2023-04-28T20:34:58.018Z,14.85
2023-04-28T20:37:26.438Z,11.10
2023-04-28T20:39:53.227Z,9.52
2023-04-28T20:42:19.866Z,9.68
2023-04-28T20:44:46.659Z,15.25
2023-04-28T20:47:14.200Z,18.55
2023-04-28T20:49:41.925Z,14.30
2023-04-28T20:52:08.720Z,13.18
2023-04-28T20:54:38.563Z,17.10
2023-04-28T20:57:05.253Z,17.23
2023-04-28T20:59:32.963Z,8.82
2023-04-28T21:02:00.343Z,17.55
2023-04-28T21:04:28.228Z,14.00
2023-04-28T21:06:55.696Z,19.63
2023-04-28T21:09:25.002Z,15.00
2023-04-28T21:11:51.809Z,14.90
2023-04-28T21:14:18.478Z,17.85
2023-04-28T21:16:45.144Z,22.45
2023-04-28T21:19:11.783Z,15.20
2023-04-28T21:21:38.795Z,24.95
2023-04-28T21:24:06.319Z,25.90
2023-04-28T21:26:33.143Z,17.98
2023-04-28T21:28:59.943Z,20.90
2023-04-28T21:31:26.739Z,16.67
2023-04-28T21:33:53.621Z,15.43
2023-04-28T21:36:20.292Z,22.65
2023-04-28T21:38:46.990Z,24.83
2023-04-28T21:41:13.652Z,22.02
2023-04-28T21:43:40.557Z,12.93
2023-04-28T21:46:07.284Z,19.38
2023-04-28T21:48:34.130Z,13.07
2023-04-28T21:51:01.621Z,21.27
2023-04-28T21:53:28.991Z,15.82
2023-04-28T21:55:55.594Z,19.92
2023-04-28T21:58:22.336Z,16.85
2023-04-28T22:00:49.224Z,15.00
2023-04-28T22:03:16.494Z,15.77
2023-04-28T22:05:44.822Z,11.75
2023-04-28T22:08:11.945Z,14.75
2023-04-28T22:10:38.852Z,15.57
2023-04-28T22:13:06.602Z,14.93
2023-04-28T22:15:33.621Z,9.40
2023-04-28T22:18:00.432Z,8.80
2023-04-28T22:20:27.265Z,14.35
2023-04-28T22:22:54.282Z,13.05
2023-04-28T22:25:21.333Z,13.20
2023-04-28T22:27:47.998Z,15.95
2023-04-28T22:30:14.755Z,10.00
2023-04-28T22:32:44.915Z,7.72
2023-04-28T22:35:12.730Z,14.80
2023-04-28T22:37:39.881Z,9.27
2023-04-28T22:40:08.507Z,15.98
2023-04-28T22:42:39.708Z,11.70
2023-04-28T22:45:06.838Z,11.50
2023-04-28T22:47:34.622Z,14.32
2023-04-28T22:50:03.984Z,14.82
2023-04-28T22:52:30.591Z,9.05
2023-04-28T22:54:57.570Z,11.73
2023-04-28T22:57:24.537Z,9.35
2023-04-28T22:59:51.413Z,9.70
2023-04-28T23:02:18.232Z,11.65
2023-04-28T23:04:44.931Z,9.68
2023-04-28T23:07:11.607Z,15.18
2023-04-28T23:09:38.619Z,15.00
2023-04-28T23:12:05.390Z,11.80
2023-04-28T23:14:32.865Z,19.88
2023-04-28T23:16:59.969Z,18.13
2023-04-28T23:19:26.668Z,10.63
2023-04-28T23:21:54.517Z,21.90
2023-04-28T23:24:21.185Z,17.35
2023-04-28T23:26:47.902Z,10.98
2023-04-28T23:29:14.712Z,13.70
2023-04-28T23:31:41.589Z,21.45
2023-04-28T23:34:08.917Z,11.98
2023-04-28T23:36:36.463Z,23.88
2023-04-28T23:39:03.173Z,13.00
2023-04-28T23:41:29.835Z,23.67
2023-04-28T23:43:56.914Z,21.65
2023-04-28T23:46:24.004Z,20.08
2023-04-28T23:48:50.971Z,16.05
2023-04-28T23:51:18.004Z,23.73
2023-04-28T23:53:44.916Z,14.93
2023-04-28T23:56:11.703Z,18.77
2023-04-28T23:58:39.922Z,17.92
